sensor_id;sensor_type;location;lat;lon;timestamp;P1;durP1;ratioP1;P2;durP2;ratioP2
1999;SDS011;1001;48.87406500;9.59633600;2022-07-10T00:02:06;6.30;;;5.50;;
1999;SDS011;1001;48.87406500;9.59633600;2022-07-10T00:04:32;4.83;;;4.43;;
1999;SDS011;1001;48.87406500;9.59633600;2022-07-10T00:06:59;5.70;;;4.80;;
1999;SDS011;1001;48.87406500;9.59633600;2022-07-10T00:09:27;6.80;;;4.90;;
1999;SDS011;1001;48.87406500;9.59633600;2022-07-10T00:11:54;4.80;;;4.40;;
1999;SDS011;1001;48.87406500;9.59633600;2022-07-10T00:14:20;5.07;;;4.67;;
1999;SDS011;1001;48.87406500;9.59633600;2022-07-10T00:16:47;4.93;;;4.43;;
1999;SDS011;1001;48.87406500;9.59633600;2022-07-10T00:19:15;5.30;;;4.80;;
1999;SDS011;1001;48.87406500;9.59633600;2022-07-10T00:21:42;4.73;;;4.33;;
1999;SDS011;1001;48.87406500;9.59633600;2022-07-10T00:24:08;5.83;;;5.33;;
1999;SDS011;1001;48.87406500;9.59633600;2022-07-10T00:26:35;5.50;;;5.00;;
1999;SDS011;1001;48.87406500;9.59633600;2022-07-10T00:29:02;6.53;;;5.93;;
1999;SDS011;1001;48.87406500;9.59633600;2022-07-10T00:31:28;6.60;;;6.00;;
1999;SDS011;1001;48.87406500;9.59633600;2022-07-10T00:33:56;6.57;;;5.93;;
1999;SDS011;1001;48.87406500;9.59633600;2022-07-10T00:36:24;6.60;;;6.00;;
1999;SDS011;1001;48.87406500;9.59633600;2022-07-10T00:38:50;4.93;;;4.53;;
1999;SDS011;1001;48.87406500;9.59633600;2022-07-10T00:41:17;5.87;;;5.30;;
1999;SDS011;1001;48.87406500;9.59633600;2022-07-10T00:43:53;6.50;;;5.90;;
1999;SDS011;1001;48.87406500;9.59633600;2022-07-10T00:46:21;9.10;;;6.97;;
1999;SDS011;1001;48.87406500;9.59633600;2022-07-10T00:48:48;7.73;;;6.90;;
1999;SDS011;1001;48.87406500;9.59633600;2022-07-10T00:51:16;6.77;;;6.17;;
1999;SDS011;1001;48.87406500;9.59633600;2022-07-10T00:53:46;6.33;;;5.70;;
1999;SDS011;1001;48.87406500;9.59633600;2022-07-10T00:56:14;6.60;;;6.00;;
1999;SDS011;1001;48.87406500;9.59633600;2022-07-10T00:58:42;7.90;;;6.70;;
1999;SDS011;1001;48.87406500;9.59633600;2022-07-10T01:01:09;9.83;;;7.20;;
1999;SDS011;1001;48.87406500;9.59633600;2022-07-10T01:03:36;8.20;;;6.70;;
1999;SDS011;1001;48.87406500;9.59633600;2022-07-10T01:06:03;7.57;;;6.87;;
1999;SDS011;1001;48.87406500;9.59633600;2022-07-10T01:08:30;8.40;;;7.70;;
1999;SDS011;1001;48.87406500;9.59633600;2022-07-10T01:10:58;8.90;;;8.10;;
1999;SDS011;1001;48.87406500;9.59633600;2022-07-10T01:13:26;9.67;;;8.80;;
1999;SDS011;1001;48.87406500;9.59633600;2022-07-10T01:15:52;8.67;;;7.87;;
1999;SDS011;1001;48.87406500;9.59633600;2022-07-10T01:18:19;12.00;;;8.20;;
1999;SDS011;1001;48.87406500;9.59633600;2022-07-10T01:20:50;8.57;;;7.77;;
1999;SDS011;1001;48.87406500;9.59633600;2022-07-10T01:23:17;9.60;;;8.27;;
1999;SDS011;1001;48.87406500;9.59633600;2022-07-10T01:25:44;9.23;;;8.43;;
1999;SDS011;1001;48.87406500;9.59633600;2022-07-10T01:28:10;9.67;;;8.70;;
1999;SDS011;1001;48.87406500;9.59633600;2022-07-10T01:30:37;8.30;;;7.60;;
1999;SDS011;1001;48.87406500;9.59633600;2022-07-10T01:33:04;9.03;;;8.23;;
1999;SDS011;1001;48.87406500;9.59633600;2022-07-10T01:35:30;9.07;;;8.23;;
1999;SDS011;1001;48.87406500;9.59633600;2022-07-10T01:37:58;8.73;;;7.70;;
1999;SDS011;1001;48.87406500;9.59633600;2022-07-10T01:40:25;9.83;;;8.63;;
1999;SDS011;1001;48.87406500;9.59633600;2022-07-10T01:42:52;8.83;;;7.93;;
1999;SDS011;1001;48.87406500;9.59633600;2022-07-10T01:45:19;9.43;;;8.50;;
1999;SDS011;1001;48.87406500;9.59633600;2022-07-10T01:47:45;9.20;;;8.30;;
1999;SDS011;1001;48.87406500;9.59633600;2022-07-10T01:50:14;10.07;;;8.40;;
1999;SDS011;1001;48.87406500;9.59633600;2022-07-10T01:52:40;7.60;;;6.90;;
1999;SDS011;1001;48.87406500;9.59633600;2022-07-10T01:55:09;7.90;;;7.10;;
1999;SDS011;1001;48.87406500;9.59633600;2022-07-10T01:57:35;10.83;;;9.00;;
1999;SDS011;1001;48.87406500;9.59633600;2022-07-10T02:00:02;8.83;;;8.03;;
1999;SDS011;1001;48.87406500;9.59633600;2022-07-10T02:02:30;8.63;;;7.87;;
1999;SDS011;1001;48.87406500;9.59633600;2022-07-10T02:04:56;10.47;;;8.70;;
1999;SDS011;1001;48.87406500;9.59633600;2022-07-10T02:07:22;8.17;;;7.23;;
1999;SDS011;1001;48.87406500;9.59633600;2022-07-10T02:09:51;8.17;;;7.37;;
1999;SDS011;1001;48.87406500;9.59633600;2022-07-10T02:12:19;7.13;;;6.53;;
1999;SDS011;1001;48.87406500;9.59633600;2022-07-10T02:14:45;7.47;;;6.83;;
1999;SDS011;1001;48.87406500;9.59633600;2022-07-10T02:17:12;8.77;;;7.87;;
1999;SDS011;1001;48.87406500;9.59633600;2022-07-10T02:19:41;8.77;;;7.87;;
1999;SDS011;1001;48.87406500;9.59633600;2022-07-10T02:22:07;8.50;;;7.80;;
1999;SDS011;1001;48.87406500;9.59633600;2022-07-10T02:24:34;8.30;;;7.60;;
1999;SDS011;1001;48.87406500;9.59633600;2022-07-10T02:27:01;8.30;;;7.67;;
1999;SDS011;1001;48.87406500;9.59633600;2022-07-10T02:29:29;7.63;;;6.93;;
1999;SDS011;1001;48.87406500;9.59633600;2022-07-10T02:31:55;5.90;;;5.30;;
1999;SDS011;1001;48.87406500;9.59633600;2022-07-10T02:34:22;8.83;;;6.97;;
1999;SDS011;1001;48.87406500;9.59633600;2022-07-10T02:36:51;6.97;;;6.27;;
1999;SDS011;1001;48.87406500;9.59633600;2022-07-10T02:39:17;6.23;;;5.63;;
1999;SDS011;1001;48.87406500;9.59633600;2022-07-10T02:41:44;5.80;;;5.30;;
1999;SDS011;1001;48.87406500;9.59633600;2022-07-10T02:44:11;6.03;;;5.43;;
1999;SDS011;1001;48.87406500;9.59633600;2022-07-10T02:46:39;6.17;;;5.67;;
1999;SDS011;1001;48.87406500;9.59633600;2022-07-10T02:49:06;6.20;;;5.70;;
1999;SDS011;1001;48.87406500;9.59633600;2022-07-10T02:51:32;6.30;;;5.80;;
1999;SDS011;1001;48.87406500;9.59633600;2022-07-10T02:53:59;6.80;;;5.70;;
1999;SDS011;1001;48.87406500;9.59633600;2022-07-10T02:56:26;6.63;;;5.70;;
1999;SDS011;1001;48.87406500;9.59633600;2022-07-10T02:58:52;5.80;;;5.30;;
1999;SDS011;1001;48.87406500;9.59633600;2022-07-10T03:01:19;5.87;;;5.27;;
1999;SDS011;1001;48.87406500;9.59633600;2022-07-10T03:03:47;5.40;;;4.90;;
1999;SDS011;1001;48.87406500;9.59633600;2022-07-10T03:06:14;5.20;;;4.33;;
1999;SDS011;1001;48.87406500;9.59633600;2022-07-10T03:08:40;6.50;;;5.90;;
1999;SDS011;1001;48.87406500;9.59633600;2022-07-10T03:11:07;7.17;;;6.43;;
1999;SDS011;1001;48.87406500;9.59633600;2022-07-10T03:13:34;5.80;;;5.30;;
1999;SDS011;1001;48.87406500;9.59633600;2022-07-10T03:16:00;7.33;;;4.63;;
1999;SDS011;1001;48.87406500;9.59633600;2022-07-10T03:18:27;5.53;;;5.00;;
1999;SDS011;1001;48.87406500;9.59633600;2022-07-10T03:20:55;5.53;;;4.93;;
1999;SDS011;1001;48.87406500;9.59633600;2022-07-10T03:23:22;6.23;;;4.27;;
1999;SDS011;1001;48.87406500;9.59633600;2022-07-10T03:25:49;5.40;;;4.90;;
1999;SDS011;1001;48.87406500;9.59633600;2022-07-10T03:28:15;5.80;;;5.30;;
1999;SDS011;1001;48.87406500;9.59633600;2022-07-10T03:30:42;6.47;;;5.60;;
1999;SDS011;1001;48.87406500;9.59633600;2022-07-10T03:33:09;6.13;;;5.63;;
1999;SDS011;1001;48.87406500;9.59633600;2022-07-10T03:35:35;7.83;;;5.50;;
1999;SDS011;1001;48.87406500;9.59633600;2022-07-10T03:38:03;6.03;;;5.10;;
1999;SDS011;1001;48.87406500;9.59633600;2022-07-10T03:40:30;6.30;;;4.67;;
1999;SDS011;1001;48.87406500;9.59633600;2022-07-10T03:42:56;7.20;;;4.70;;
1999;SDS011;1001;48.87406500;9.59633600;2022-07-10T03:45:23;4.97;;;4.53;;
1999;SDS011;1001;48.87406500;9.59633600;2022-07-10T03:47:50;8.53;;;4.20;;
1999;SDS011;1001;48.87406500;9.59633600;2022-07-10T03:50:16;4.43;;;4.13;;
1999;SDS011;1001;48.87406500;9.59633600;2022-07-10T03:52:43;5.40;;;4.20;;
1999;SDS011;1001;48.87406500;9.59633600;2022-07-10T03:55:12;5.87;;;3.83;;
1999;SDS011;1001;48.87406500;9.59633600;2022-07-10T03:57:39;5.47;;;4.00;;
1999;SDS011;1001;48.87406500;9.59633600;2022-07-10T04:00:20;7.80;;;4.23;;
1999;SDS011;1001;48.87406500;9.59633600;2022-07-10T04:02:48;6.60;;;3.67;;
1999;SDS011;1001;48.87406500;9.59633600;2022-07-10T04:05:20;5.00;;;3.70;;
1999;SDS011;1001;48.87406500;9.59633600;2022-07-10T04:07:47;4.80;;;3.90;;
1999;SDS011;1001;48.87406500;9.59633600;2022-07-10T04:10:15;5.40;;;3.80;;
1999;SDS011;1001;48.87406500;9.59633600;2022-07-10T04:12:41;4.80;;;3.37;;
1999;SDS011;1001;48.87406500;9.59633600;2022-07-10T04:15:08;5.10;;;3.13;;
1999;SDS011;1001;48.87406500;9.59633600;2022-07-10T04:17:35;4.97;;;3.17;;
1999;SDS011;1001;48.87406500;9.59633600;2022-07-10T04:20:02;6.90;;;3.20;;
1999;SDS011;1001;48.87406500;9.59633600;2022-07-10T04:22:29;4.90;;;3.57;;
1999;SDS011;1001;48.87406500;9.59633600;2022-07-10T04:24:56;3.07;;;2.77;;
1999;SDS011;1001;48.87406500;9.59633600;2022-07-10T04:27:24;5.63;;;3.23;;
1999;SDS011;1001;48.87406500;9.59633600;2022-07-10T04:29:51;3.83;;;3.20;;
1999;SDS011;1001;48.87406500;9.59633600;2022-07-10T04:32:17;3.97;;;2.90;;
1999;SDS011;1001;48.87406500;9.59633600;2022-07-10T04:34:45;3.90;;;3.37;;
1999;SDS011;1001;48.87406500;9.59633600;2022-07-10T04:37:11;3.40;;;2.73;;
1999;SDS011;1001;48.87406500;9.59633600;2022-07-10T04:39:38;4.10;;;3.30;;
1999;SDS011;1001;48.87406500;9.59633600;2022-07-10T04:42:06;4.23;;;3.27;;
1999;SDS011;1001;48.87406500;9.59633600;2022-07-10T04:44:34;4.90;;;2.80;;
1999;SDS011;1001;48.87406500;9.59633600;2022-07-10T04:47:02;4.20;;;2.90;;
1999;SDS011;1001;48.87406500;9.59633600;2022-07-10T04:49:30;3.67;;;2.90;;
1999;SDS011;1001;48.87406500;9.59633600;2022-07-10T04:51:57;3.20;;;2.80;;
1999;SDS011;1001;48.87406500;9.59633600;2022-07-10T04:54:24;4.80;;;3.13;;
1999;SDS011;1001;48.87406500;9.59633600;2022-07-10T04:56:51;3.07;;;2.80;;
1999;SDS011;1001;48.87406500;9.59633600;2022-07-10T04:59:19;3.27;;;2.40;;
1999;SDS011;1001;48.87406500;9.59633600;2022-07-10T05:01:47;6.30;;;2.90;;
1999;SDS011;1001;48.87406500;9.59633600;2022-07-10T05:04:14;3.13;;;2.80;;
1999;SDS011;1001;48.87406500;9.59633600;2022-07-10T05:06:40;4.10;;;2.67;;
1999;SDS011;1001;48.87406500;9.59633600;2022-07-10T05:09:07;3.30;;;2.57;;
1999;SDS011;1001;48.87406500;9.59633600;2022-07-10T05:11:34;4.00;;;2.30;;
1999;SDS011;1001;48.87406500;9.59633600;2022-07-10T05:14:00;8.40;;;2.80;;
1999;SDS011;1001;48.87406500;9.59633600;2022-07-10T05:16:27;3.13;;;2.60;;
1999;SDS011;1001;48.87406500;9.59633600;2022-07-10T05:18:55;3.73;;;2.70;;
1999;SDS011;1001;48.87406500;9.59633600;2022-07-10T05:21:22;4.83;;;2.97;;
1999;SDS011;1001;48.87406500;9.59633600;2022-07-10T05:23:50;4.17;;;2.50;;
1999;SDS011;1001;48.87406500;9.59633600;2022-07-10T05:26:17;3.07;;;2.70;;
1999;SDS011;1001;48.87406500;9.59633600;2022-07-10T05:28:43;2.53;;;2.33;;
1999;SDS011;1001;48.87406500;9.59633600;2022-07-10T05:31:10;5.87;;;2.80;;
1999;SDS011;1001;48.87406500;9.59633600;2022-07-10T05:33:37;5.17;;;2.50;;
1999;SDS011;1001;48.87406500;9.59633600;2022-07-10T05:36:07;3.10;;;2.30;;
1999;SDS011;1001;48.87406500;9.59633600;2022-07-10T05:38:33;3.10;;;2.40;;
1999;SDS011;1001;48.87406500;9.59633600;2022-07-10T05:41:00;5.67;;;1.90;;
1999;SDS011;1001;48.87406500;9.59633600;2022-07-10T05:43:27;4.47;;;2.40;;
1999;SDS011;1001;48.87406500;9.59633600;2022-07-10T05:45:53;4.83;;;2.03;;
1999;SDS011;1001;48.87406500;9.59633600;2022-07-10T05:48:20;6.67;;;2.30;;
1999;SDS011;1001;48.87406500;9.59633600;2022-07-10T05:50:46;2.80;;;2.10;;
1999;SDS011;1001;48.87406500;9.59633600;2022-07-10T05:53:14;8.40;;;2.83;;
1999;SDS011;1001;48.87406500;9.59633600;2022-07-10T05:55:44;2.40;;;2.20;;
1999;SDS011;1001;48.87406500;9.59633600;2022-07-10T05:58:11;2.87;;;2.40;;
1999;SDS011;1001;48.87406500;9.59633600;2022-07-10T06:00:38;3.00;;;1.80;;
1999;SDS011;1001;48.87406500;9.59633600;2022-07-10T06:03:04;3.40;;;1.87;;
1999;SDS011;1001;48.87406500;9.59633600;2022-07-10T06:05:31;4.20;;;2.60;;
1999;SDS011;1001;48.87406500;9.59633600;2022-07-10T06:07:58;4.80;;;2.67;;
1999;SDS011;1001;48.87406500;9.59633600;2022-07-10T06:10:26;2.60;;;2.10;;
1999;SDS011;1001;48.87406500;9.59633600;2022-07-10T06:12:52;2.57;;;1.97;;
1999;SDS011;1001;48.87406500;9.59633600;2022-07-10T06:15:19;3.53;;;1.80;;
1999;SDS011;1001;48.87406500;9.59633600;2022-07-10T06:17:46;3.50;;;1.87;;
1999;SDS011;1001;48.87406500;9.59633600;2022-07-10T06:20:12;3.00;;;1.90;;
1999;SDS011;1001;48.87406500;9.59633600;2022-07-10T06:22:39;2.90;;;1.90;;
1999;SDS011;1001;48.87406500;9.59633600;2022-07-10T06:25:06;4.27;;;1.90;;
1999;SDS011;1001;48.87406500;9.59633600;2022-07-10T06:27:35;2.00;;;1.70;;
1999;SDS011;1001;48.87406500;9.59633600;2022-07-10T06:30:02;2.97;;;2.07;;
1999;SDS011;1001;48.87406500;9.59633600;2022-07-10T06:32:30;2.70;;;2.20;;
1999;SDS011;1001;48.87406500;9.59633600;2022-07-10T06:34:56;5.03;;;1.93;;
1999;SDS011;1001;48.87406500;9.59633600;2022-07-10T06:37:23;2.37;;;2.17;;
1999;SDS011;1001;48.87406500;9.59633600;2022-07-10T06:39:50;3.00;;;2.30;;
1999;SDS011;1001;48.87406500;9.59633600;2022-07-10T06:42:17;4.97;;;2.97;;
1999;SDS011;1001;48.87406500;9.59633600;2022-07-10T06:44:45;3.90;;;2.33;;
1999;SDS011;1001;48.87406500;9.59633600;2022-07-10T06:47:12;4.33;;;2.37;;
1999;SDS011;1001;48.87406500;9.59633600;2022-07-10T06:49:58;4.23;;;2.50;;
1999;SDS011;1001;48.87406500;9.59633600;2022-07-10T06:52:26;2.40;;;2.20;;
1999;SDS011;1001;48.87406500;9.59633600;2022-07-10T06:54:53;3.17;;;2.30;;
1999;SDS011;1001;48.87406500;9.59633600;2022-07-10T06:57:19;2.80;;;1.90;;
1999;SDS011;1001;48.87406500;9.59633600;2022-07-10T06:59:48;3.07;;;1.70;;
1999;SDS011;1001;48.87406500;9.59633600;2022-07-10T07:02:14;3.90;;;2.10;;
1999;SDS011;1001;48.87406500;9.59633600;2022-07-10T07:04:41;4.50;;;2.70;;
1999;SDS011;1001;48.87406500;9.59633600;2022-07-10T07:07:09;5.10;;;2.40;;
1999;SDS011;1001;48.87406500;9.59633600;2022-07-10T07:09:36;2.80;;;2.13;;
1999;SDS011;1001;48.87406500;9.59633600;2022-07-10T07:12:03;2.60;;;2.10;;
1999;SDS011;1001;48.87406500;9.59633600;2022-07-10T07:14:30;3.07;;;2.20;;
1999;SDS011;1001;48.87406500;9.59633600;2022-07-10T07:16:58;3.03;;;1.90;;
1999;SDS011;1001;48.87406500;9.59633600;2022-07-10T07:19:30;3.93;;;1.87;;
1999;SDS011;1001;48.87406500;9.59633600;2022-07-10T07:21:57;6.80;;;1.67;;
1999;SDS011;1001;48.87406500;9.59633600;2022-07-10T07:24:42;4.47;;;1.90;;
1999;SDS011;1001;48.87406500;9.59633600;2022-07-10T07:27:09;2.17;;;1.70;;
1999;SDS011;1001;48.87406500;9.59633600;2022-07-10T07:29:36;1.57;;;1.43;;
1999;SDS011;1001;48.87406500;9.59633600;2022-07-10T07:32:05;3.47;;;2.07;;
1999;SDS011;1001;48.87406500;9.59633600;2022-07-10T07:34:32;2.50;;;1.30;;
1999;SDS011;1001;48.87406500;9.59633600;2022-07-10T07:36:59;2.23;;;1.60;;
1999;SDS011;1001;48.87406500;9.59633600;2022-07-10T07:39:25;2.63;;;1.70;;
1999;SDS011;1001;48.87406500;9.59633600;2022-07-10T07:41:52;1.70;;;1.60;;
1999;SDS011;1001;48.87406500;9.59633600;2022-07-10T07:44:18;3.30;;;1.50;;
1999;SDS011;1001;48.87406500;9.59633600;2022-07-10T07:46:45;3.40;;;1.90;;
1999;SDS011;1001;48.87406500;9.59633600;2022-07-10T07:49:13;1.87;;;1.77;;
1999;SDS011;1001;48.87406500;9.59633600;2022-07-10T07:51:40;3.93;;;1.60;;
1999;SDS011;1001;48.87406500;9.59633600;2022-07-10T07:54:06;5.17;;;1.87;;
1999;SDS011;1001;48.87406500;9.59633600;2022-07-10T07:56:33;2.67;;;1.70;;
1999;SDS011;1001;48.87406500;9.59633600;2022-07-10T07:59:00;4.07;;;2.23;;
1999;SDS011;1001;48.87406500;9.59633600;2022-07-10T08:01:26;3.63;;;1.83;;
1999;SDS011;1001;48.87406500;9.59633600;2022-07-10T08:03:53;2.67;;;1.40;;
1999;SDS011;1001;48.87406500;9.59633600;2022-07-10T08:06:22;5.40;;;1.97;;
1999;SDS011;1001;48.87406500;9.59633600;2022-07-10T08:08:48;3.23;;;1.90;;
1999;SDS011;1001;48.87406500;9.59633600;2022-07-10T08:11:15;3.30;;;2.00;;
1999;SDS011;1001;48.87406500;9.59633600;2022-07-10T08:13:42;5.20;;;1.90;;
1999;SDS011;1001;48.87406500;9.59633600;2022-07-10T08:16:09;4.80;;;1.90;;
1999;SDS011;1001;48.87406500;9.59633600;2022-07-10T08:18:36;2.20;;;1.90;;
1999;SDS011;1001;48.87406500;9.59633600;2022-07-10T08:21:03;1.67;;;1.57;;
1999;SDS011;1001;48.87406500;9.59633600;2022-07-10T08:23:31;6.07;;;2.30;;
1999;SDS011;1001;48.87406500;9.59633600;2022-07-10T08:25:58;1.57;;;1.47;;
1999;SDS011;1001;48.87406500;9.59633600;2022-07-10T08:28:24;2.37;;;1.67;;
1999;SDS011;1001;48.87406500;9.59633600;2022-07-10T08:30:51;3.60;;;1.73;;
1999;SDS011;1001;48.87406500;9.59633600;2022-07-10T08:33:18;3.53;;;1.50;;
1999;SDS011;1001;48.87406500;9.59633600;2022-07-10T08:35:45;4.67;;;1.70;;
1999;SDS011;1001;48.87406500;9.59633600;2022-07-10T08:38:12;3.70;;;2.23;;
1999;SDS011;1001;48.87406500;9.59633600;2022-07-10T08:40:40;3.03;;;2.10;;
1999;SDS011;1001;48.87406500;9.59633600;2022-07-10T08:43:07;4.07;;;1.43;;
1999;SDS011;1001;48.87406500;9.59633600;2022-07-10T08:45:34;2.00;;;1.60;;
1999;SDS011;1001;48.87406500;9.59633600;2022-07-10T08:48:01;2.07;;;1.60;;
1999;SDS011;1001;48.87406500;9.59633600;2022-07-10T08:50:32;2.90;;;1.73;;
1999;SDS011;1001;48.87406500;9.59633600;2022-07-10T08:53:00;2.47;;;1.90;;
1999;SDS011;1001;48.87406500;9.59633600;2022-07-10T08:55:33;2.40;;;1.47;;
1999;SDS011;1001;48.87406500;9.59633600;2022-07-10T08:58:03;4.23;;;1.80;;
1999;SDS011;1001;48.87406500;9.59633600;2022-07-10T09:00:30;1.83;;;1.57;;
1999;SDS011;1001;48.87406500;9.59633600;2022-07-10T09:02:57;3.93;;;2.03;;
1999;SDS011;1001;48.87406500;9.59633600;2022-07-10T09:05:24;2.70;;;1.43;;
1999;SDS011;1001;48.87406500;9.59633600;2022-07-10T09:07:51;2.73;;;1.93;;
1999;SDS011;1001;48.87406500;9.59633600;2022-07-10T09:10:19;2.63;;;1.43;;
1999;SDS011;1001;48.87406500;9.59633600;2022-07-10T09:12:51;4.07;;;1.87;;
1999;SDS011;1001;48.87406500;9.59633600;2022-07-10T09:15:21;3.00;;;1.70;;
1999;SDS011;1001;48.87406500;9.59633600;2022-07-10T09:17:50;5.63;;;2.00;;
1999;SDS011;1001;48.87406500;9.59633600;2022-07-10T09:20:27;2.20;;;1.60;;
1999;SDS011;1001;48.87406500;9.59633600;2022-07-10T09:22:56;1.57;;;1.47;;
1999;SDS011;1001;48.87406500;9.59633600;2022-07-10T09:25:29;5.10;;;1.67;;
1999;SDS011;1001;48.87406500;9.59633600;2022-07-10T09:27:57;3.03;;;1.60;;
1999;SDS011;1001;48.87406500;9.59633600;2022-07-10T09:30:37;1.87;;;1.73;;
1999;SDS011;1001;48.87406500;9.59633600;2022-07-10T09:33:21;3.10;;;1.40;;
1999;SDS011;1001;48.87406500;9.59633600;2022-07-10T09:36:01;2.97;;;1.50;;
1999;SDS011;1001;48.87406500;9.59633600;2022-07-10T09:38:51;2.43;;;1.53;;
1999;SDS011;1001;48.87406500;9.59633600;2022-07-10T09:41:23;2.90;;;1.47;;
1999;SDS011;1001;48.87406500;9.59633600;2022-07-10T09:43:52;3.13;;;1.73;;
1999;SDS011;1001;48.87406500;9.59633600;2022-07-10T09:46:22;2.10;;;1.33;;
1999;SDS011;1001;48.87406500;9.59633600;2022-07-10T09:49:03;3.30;;;1.70;;
1999;SDS011;1001;48.87406500;9.59633600;2022-07-10T09:51:35;2.37;;;1.40;;
1999;SDS011;1001;48.87406500;9.59633600;2022-07-10T09:54:03;1.60;;;1.30;;
1999;SDS011;1001;48.87406500;9.59633600;2022-07-10T09:56:33;3.57;;;1.93;;
1999;SDS011;1001;48.87406500;9.59633600;2022-07-10T09:59:08;2.60;;;1.60;;
1999;SDS011;1001;48.87406500;9.59633600;2022-07-10T10:01:37;3.23;;;1.90;;
1999;SDS011;1001;48.87406500;9.59633600;2022-07-10T10:04:10;1.60;;;1.33;;
1999;SDS011;1001;48.87406500;9.59633600;2022-07-10T10:06:38;3.10;;;1.90;;
1999;SDS011;1001;48.87406500;9.59633600;2022-07-10T10:09:08;2.80;;;1.33;;
1999;SDS011;1001;48.87406500;9.59633600;2022-07-10T10:11:38;2.90;;;1.97;;
1999;SDS011;1001;48.87406500;9.59633600;2022-07-10T10:14:07;3.33;;;1.50;;
1999;SDS011;1001;48.87406500;9.59633600;2022-07-10T10:16:35;2.50;;;1.70;;
1999;SDS011;1001;48.87406500;9.59633600;2022-07-10T10:19:07;2.37;;;1.70;;
1999;SDS011;1001;48.87406500;9.59633600;2022-07-10T10:21:52;1.87;;;1.50;;
1999;SDS011;1001;48.87406500;9.59633600;2022-07-10T10:24:20;2.43;;;1.63;;
1999;SDS011;1001;48.87406500;9.59633600;2022-07-10T10:26:48;2.60;;;1.70;;
1999;SDS011;1001;48.87406500;9.59633600;2022-07-10T10:29:15;2.57;;;1.70;;
1999;SDS011;1001;48.87406500;9.59633600;2022-07-10T10:31:44;4.00;;;1.63;;
1999;SDS011;1001;48.87406500;9.59633600;2022-07-10T10:34:11;3.17;;;1.40;;
1999;SDS011;1001;48.87406500;9.59633600;2022-07-10T10:36:44;4.30;;;1.47;;
1999;SDS011;1001;48.87406500;9.59633600;2022-07-10T10:39:16;2.10;;;1.90;;
1999;SDS011;1001;48.87406500;9.59633600;2022-07-10T10:41:46;3.70;;;1.33;;
1999;SDS011;1001;48.87406500;9.59633600;2022-07-10T10:44:21;3.37;;;1.13;;
1999;SDS011;1001;48.87406500;9.59633600;2022-07-10T10:46:56;2.03;;;1.17;;
1999;SDS011;1001;48.87406500;9.59633600;2022-07-10T10:52:26;3.73;;;1.23;;
1999;SDS011;1001;48.87406500;9.59633600;2022-07-10T10:55:00;1.80;;;0.77;;
1999;SDS011;1001;48.87406500;9.59633600;2022-07-10T10:57:34;2.73;;;1.50;;
1999;SDS011;1001;48.87406500;9.59633600;2022-07-10T11:03:16;2.67;;;1.10;;
1999;SDS011;1001;48.87406500;9.59633600;2022-07-10T11:05:45;3.27;;;1.10;;
1999;SDS011;1001;48.87406500;9.59633600;2022-07-10T11:14:08;1.80;;;1.03;;
1999;SDS011;1001;48.87406500;9.59633600;2022-07-10T11:16:37;1.70;;;0.97;;
1999;SDS011;1001;48.87406500;9.59633600;2022-07-10T11:19:14;4.53;;;1.10;;
1999;SDS011;1001;48.87406500;9.59633600;2022-07-10T11:21:47;3.40;;;1.47;;
1999;SDS011;1001;48.87406500;9.59633600;2022-07-10T11:24:20;4.97;;;1.30;;
1999;SDS011;1001;48.87406500;9.59633600;2022-07-10T11:27:02;1.47;;;0.93;;
1999;SDS011;1001;48.87406500;9.59633600;2022-07-10T11:29:37;2.23;;;1.27;;
1999;SDS011;1001;48.87406500;9.59633600;2022-07-10T11:32:04;1.47;;;1.17;;
1999;SDS011;1001;48.87406500;9.59633600;2022-07-10T11:34:37;2.60;;;1.30;;
1999;SDS011;1001;48.87406500;9.59633600;2022-07-10T11:37:03;4.53;;;1.13;;
1999;SDS011;1001;48.87406500;9.59633600;2022-07-10T11:39:40;1.20;;;0.80;;
1999;SDS011;1001;48.87406500;9.59633600;2022-07-10T11:42:06;1.97;;;1.13;;
1999;SDS011;1001;48.87406500;9.59633600;2022-07-10T11:44:33;2.63;;;1.30;;
1999;SDS011;1001;48.87406500;9.59633600;2022-07-10T11:47:00;1.47;;;1.27;;
1999;SDS011;1001;48.87406500;9.59633600;2022-07-10T11:49:28;2.33;;;0.90;;
1999;SDS011;1001;48.87406500;9.59633600;2022-07-10T11:51:58;2.90;;;1.60;;
1999;SDS011;1001;48.87406500;9.59633600;2022-07-10T11:54:28;1.53;;;1.20;;
1999;SDS011;1001;48.87406500;9.59633600;2022-07-10T11:56:54;3.10;;;1.10;;
1999;SDS011;1001;48.87406500;9.59633600;2022-07-10T11:59:23;2.87;;;1.27;;
1999;SDS011;1001;48.87406500;9.59633600;2022-07-10T12:01:51;1.00;;;0.90;;
1999;SDS011;1001;48.87406500;9.59633600;2022-07-10T12:04:19;4.23;;;1.20;;
1999;SDS011;1001;48.87406500;9.59633600;2022-07-10T12:06:47;1.10;;;1.00;;
1999;SDS011;1001;48.87406500;9.59633600;2022-07-10T12:09:15;2.40;;;1.13;;
1999;SDS011;1001;48.87406500;9.59633600;2022-07-10T12:11:56;2.80;;;1.33;;
1999;SDS011;1001;48.87406500;9.59633600;2022-07-10T12:14:25;1.87;;;1.13;;
1999;SDS011;1001;48.87406500;9.59633600;2022-07-10T12:16:52;2.43;;;1.03;;
1999;SDS011;1001;48.87406500;9.59633600;2022-07-10T12:19:22;2.40;;;1.10;;
1999;SDS011;1001;48.87406500;9.59633600;2022-07-10T12:21:50;1.37;;;1.03;;
1999;SDS011;1001;48.87406500;9.59633600;2022-07-10T12:24:19;1.90;;;1.23;;
1999;SDS011;1001;48.87406500;9.59633600;2022-07-10T12:26:46;1.40;;;0.93;;
1999;SDS011;1001;48.87406500;9.59633600;2022-07-10T12:29:18;6.83;;;1.10;;
1999;SDS011;1001;48.87406500;9.59633600;2022-07-10T12:31:46;1.50;;;0.93;;
1999;SDS011;1001;48.87406500;9.59633600;2022-07-10T12:34:14;2.17;;;1.10;;
1999;SDS011;1001;48.87406500;9.59633600;2022-07-10T12:36:42;2.53;;;1.23;;
1999;SDS011;1001;48.87406500;9.59633600;2022-07-10T12:39:10;2.60;;;1.17;;
1999;SDS011;1001;48.87406500;9.59633600;2022-07-10T12:44:33;1.20;;;1.10;;
1999;SDS011;1001;48.87406500;9.59633600;2022-07-10T12:47:01;1.10;;;0.83;;
1999;SDS011;1001;48.87406500;9.59633600;2022-07-10T12:49:31;2.07;;;1.10;;
1999;SDS011;1001;48.87406500;9.59633600;2022-07-10T12:52:18;3.03;;;0.93;;
1999;SDS011;1001;48.87406500;9.59633600;2022-07-10T12:54:45;2.50;;;1.30;;
1999;SDS011;1001;48.87406500;9.59633600;2022-07-10T12:57:13;0.73;;;0.73;;
1999;SDS011;1001;48.87406500;9.59633600;2022-07-10T12:59:40;1.80;;;1.10;;
1999;SDS011;1001;48.87406500;9.59633600;2022-07-10T13:02:15;1.77;;;0.87;;
1999;SDS011;1001;48.87406500;9.59633600;2022-07-10T13:04:51;1.73;;;0.87;;
1999;SDS011;1001;48.87406500;9.59633600;2022-07-10T13:07:18;6.67;;;1.37;;
1999;SDS011;1001;48.87406500;9.59633600;2022-07-10T13:09:47;2.03;;;1.20;;
1999;SDS011;1001;48.87406500;9.59633600;2022-07-10T13:12:16;2.33;;;1.00;;
1999;SDS011;1001;48.87406500;9.59633600;2022-07-10T13:14:43;2.30;;;1.17;;
1999;SDS011;1001;48.87406500;9.59633600;2022-07-10T13:17:10;1.93;;;0.90;;
1999;SDS011;1001;48.87406500;9.59633600;2022-07-10T13:19:36;1.20;;;0.93;;
1999;SDS011;1001;48.87406500;9.59633600;2022-07-10T13:22:03;1.30;;;0.90;;
1999;SDS011;1001;48.87406500;9.59633600;2022-07-10T13:24:30;1.87;;;0.90;;
1999;SDS011;1001;48.87406500;9.59633600;2022-07-10T13:26:58;1.60;;;1.07;;
1999;SDS011;1001;48.87406500;9.59633600;2022-07-10T13:29:26;3.17;;;1.17;;
1999;SDS011;1001;48.87406500;9.59633600;2022-07-10T13:31:53;1.83;;;1.00;;
1999;SDS011;1001;48.87406500;9.59633600;2022-07-10T13:34:19;1.53;;;0.83;;